createdAt,value
2022-08-17T00:00:44.112Z,8.55
2022-08-17T00:03:17.916Z,8.25
2022-08-17T00:05:52.170Z,8.38
2022-08-17T00:08:23.558Z,8.70
2022-08-17T00:10:53.747Z,8.32
2022-08-17T00:13:26.315Z,8.57
2022-08-17T00:15:59.962Z,9.10
2022-08-17T00:19:06.830Z,9.07
2022-08-17T00:21:25.342Z,9.45
2022-08-17T00:23:55.456Z,7.60
2022-08-17T00:26:44.303Z,8.70
2022-08-17T00:29:19.978Z,9.55
2022-08-17T00:31:50.177Z,7.78
2022-08-17T00:34:19.758Z,8.70
2022-08-17T00:36:50.324Z,8.57
2022-08-17T00:39:19.508Z,8.80
2022-08-17T00:41:48.683Z,8.35
2022-08-17T00:44:17.756Z,8.95
2022-08-17T00:49:19.626Z,8.38
2022-08-17T00:51:54.382Z,9.02
2022-08-17T00:54:28.046Z,8.38
2022-08-17T00:57:00.968Z,9.13
2022-08-17T00:59:38.718Z,8.65
2022-08-17T01:02:10.279Z,9.55
2022-08-17T01:04:39.855Z,8.85
2022-08-17T01:07:11.301Z,9.02
2022-08-17T01:09:41.542Z,7.55
2022-08-17T01:12:12.199Z,8.02
2022-08-17T01:14:42.025Z,8.02
2022-08-17T01:17:11.428Z,8.65
2022-08-17T01:19:42.668Z,8.93
2022-08-17T01:22:21.929Z,9.07
2022-08-17T01:27:23.318Z,8.60
2022-08-17T01:29:58.646Z,8.93
2022-08-17T01:32:30.393Z,9.38
2022-08-17T01:35:00.741Z,8.85
2022-08-17T01:37:34.688Z,8.25
2022-08-17T01:40:07.625Z,9.07
2022-08-17T01:42:41.301Z,8.98
2022-08-17T01:45:13.416Z,9.77
2022-08-17T01:47:42.901Z,8.45
2022-08-17T01:50:16.011Z,10.05
2022-08-17T01:52:49.290Z,9.60
2022-08-17T01:55:27.212Z,9.07
2022-08-17T01:57:58.157Z,9.17
2022-08-17T02:00:51.760Z,9.00
2022-08-17T02:03:18.857Z,9.82
2022-08-17T02:08:20.698Z,10.25
2022-08-17T02:13:40.887Z,9.30
2022-08-17T02:16:10.359Z,8.75
2022-08-17T02:18:39.571Z,8.35
2022-08-17T02:21:09.572Z,9.77
2022-08-17T02:23:43.161Z,9.10
2022-08-17T02:26:25.591Z,8.98
2022-08-17T02:28:56.010Z,9.45
2022-08-17T02:34:03.280Z,9.43
2022-08-17T02:36:35.610Z,9.35
2022-08-17T02:39:07.839Z,9.15
2022-08-17T02:41:37.693Z,8.65
2022-08-17T02:44:07.596Z,9.45
2022-08-17T02:46:37.252Z,8.75
2022-08-17T02:49:06.903Z,9.13
2022-08-17T02:51:36.362Z,9.07
2022-08-17T02:54:40.104Z,9.60
2022-08-17T02:56:56.589Z,8.98
2022-08-17T02:59:25.767Z,9.95
2022-08-17T03:04:24.363Z,8.10
2022-08-17T03:06:53.298Z,9.50
2022-08-17T03:09:23.637Z,10.02
2022-08-17T03:11:53.161Z,9.10
2022-08-17T03:14:26.088Z,9.98
2022-08-17T03:16:55.669Z,8.85
2022-08-17T03:19:24.614Z,8.93
2022-08-17T03:21:55.359Z,8.55
2022-08-17T03:24:28.729Z,9.07
2022-08-17T03:26:58.177Z,8.73
2022-08-17T03:29:27.439Z,8.80
2022-08-17T03:31:56.441Z,9.02
2022-08-17T03:36:54.561Z,8.57
2022-08-17T03:39:25.266Z,9.10
2022-08-17T03:41:54.372Z,9.18
2022-08-17T03:47:09.831Z,8.98
2022-08-17T03:49:56.322Z,10.00
2022-08-17T03:52:42.905Z,10.35
2022-08-17T03:55:35.810Z,9.75
2022-08-17T03:58:05.729Z,9.82
2022-08-17T04:00:39.767Z,9.73
2022-08-17T04:03:09.148Z,9.85
2022-08-17T04:05:38.447Z,10.85
2022-08-17T04:08:09.856Z,9.70
2022-08-17T04:10:44.994Z,9.80
2022-08-17T04:13:14.921Z,10.38
2022-08-17T04:15:53.470Z,9.93
2022-08-17T04:20:51.268Z,9.63
2022-08-17T04:23:20.925Z,9.60
2022-08-17T04:25:53.288Z,8.85
2022-08-17T04:28:22.630Z,9.80
2022-08-17T04:30:51.949Z,9.68
2022-08-17T04:33:24.123Z,10.18
2022-08-17T04:35:56.023Z,9.48
2022-08-17T04:38:27.203Z,9.75
2022-08-17T04:41:15.723Z,11.18
2022-08-17T04:43:46.488Z,10.65
2022-08-17T04:46:17.626Z,9.93
2022-08-17T04:48:49.152Z,10.77
2022-08-17T04:51:21.058Z,10.27
2022-08-17T04:53:54.138Z,9.10
2022-08-17T04:56:27.211Z,9.50
2022-08-17T04:58:59.465Z,9.85
2022-08-17T05:01:33.121Z,10.20
2022-08-17T05:04:33.518Z,10.18
2022-08-17T05:06:56.155Z,9.68
2022-08-17T05:09:25.262Z,9.80
2022-08-17T05:11:56.379Z,10.10
2022-08-17T05:14:32.900Z,11.15
2022-08-17T05:17:09.412Z,9.82
2022-08-17T05:19:41.274Z,10.25
2022-08-17T05:22:10.506Z,9.48
2022-08-17T05:27:23.978Z,10.80
2022-08-17T05:29:54.515Z,9.30
2022-08-17T05:32:38.804Z,10.73
2022-08-17T05:35:10.189Z,11.10
2022-08-17T05:37:39.467Z,10.43
2022-08-17T05:42:40.800Z,10.50
2022-08-17T05:45:11.996Z,11.40
2022-08-17T05:47:42.060Z,11.90
2022-08-17T05:50:18.053Z,9.73
2022-08-17T05:52:57.186Z,10.82
2022-08-17T05:55:36.042Z,11.13
2022-08-17T05:58:21.301Z,10.25
2022-08-17T06:00:58.911Z,10.43
2022-08-17T06:03:43.926Z,11.45
2022-08-17T06:06:31.845Z,9.02
2022-08-17T06:09:27.595Z,10.25
2022-08-17T06:12:04.508Z,10.35
2022-08-17T06:14:54.700Z,10.38
2022-08-17T06:17:28.094Z,9.88
2022-08-17T06:20:00.303Z,10.68
2022-08-17T06:22:34.548Z,8.88
2022-08-17T06:25:10.326Z,11.40
2022-08-17T06:27:45.063Z,10.05
2022-08-17T06:30:18.965Z,10.00
2022-08-17T06:32:51.163Z,9.68
2022-08-17T06:35:34.065Z,8.93
2022-08-17T06:38:33.944Z,9.30
2022-08-17T06:41:15.637Z,8.75
2022-08-17T06:44:06.912Z,9.18
2022-08-17T06:46:40.509Z,8.27
2022-08-17T06:49:26.733Z,8.80
2022-08-17T06:52:02.349Z,7.38
2022-08-17T06:54:40.009Z,8.70
2022-08-17T06:57:18.916Z,7.90
2022-08-17T06:59:55.456Z,8.70
2022-08-17T07:03:02.792Z,8.30
2022-08-17T07:05:33.944Z,8.45
2022-08-17T07:08:09.339Z,7.57
2022-08-17T07:10:43.803Z,8.05
2022-08-17T07:13:29.554Z,7.75
2022-08-17T07:16:13.231Z,7.70
2022-08-17T07:18:44.154Z,8.13
2022-08-17T07:21:27.187Z,7.35
2022-08-17T07:28:20.805Z,7.00
2022-08-17T07:31:08.393Z,6.35
2022-08-17T07:33:39.736Z,6.60
2022-08-17T07:36:29.784Z,5.80
2022-08-17T07:38:59.837Z,6.53
2022-08-17T07:41:53.159Z,6.32
2022-08-17T07:44:19.931Z,6.85
2022-08-17T07:47:12.094Z,6.38
2022-08-17T07:49:44.752Z,5.93
2022-08-17T07:52:47.931Z,6.75
2022-08-17T07:55:30.686Z,6.18
2022-08-17T07:58:00.965Z,6.38
2022-08-17T08:00:31.974Z,5.82
2022-08-17T08:03:13.351Z,6.55
2022-08-17T08:05:53.110Z,5.45
2022-08-17T08:08:29.622Z,5.63
2022-08-17T08:11:29.188Z,5.97
2022-08-17T08:14:17.676Z,6.10
2022-08-17T08:16:59.089Z,5.75
2022-08-17T08:19:31.399Z,5.85
2022-08-17T08:22:06.862Z,6.53
2022-08-17T08:24:55.483Z,5.72
2022-08-17T08:27:38.604Z,6.18
2022-08-17T08:30:14.191Z,6.72
2022-08-17T08:32:57.229Z,6.63
2022-08-17T08:35:32.852Z,6.10
2022-08-17T08:38:11.926Z,6.50
2022-08-17T08:40:54.135Z,6.28
2022-08-17T08:43:36.253Z,6.03
2022-08-17T08:46:19.682Z,6.75
2022-08-17T08:50:02.038Z,6.45
2022-08-17T08:52:43.551Z,6.30
2022-08-17T08:55:20.168Z,5.93
2022-08-17T08:57:53.598Z,6.25
2022-08-17T09:00:25.968Z,6.75
2022-08-17T09:03:51.222Z,6.03
2022-08-17T09:06:39.000Z,6.30
2022-08-17T09:09:24.680Z,5.60
2022-08-17T09:12:05.793Z,6.10
2022-08-17T09:14:45.048Z,6.00
2022-08-17T09:17:20.293Z,6.07
2022-08-17T09:19:55.681Z,5.93
2022-08-17T09:22:35.230Z,6.10
2022-08-17T09:25:11.219Z,7.25
2022-08-17T09:27:52.079Z,6.40
2022-08-17T09:30:23.819Z,6.55
2022-08-17T09:32:57.543Z,6.22
2022-08-17T09:35:37.103Z,7.28
2022-08-17T09:38:17.213Z,6.50
2022-08-17T09:40:52.994Z,6.22
2022-08-17T09:43:32.643Z,6.70
2022-08-17T09:46:09.019Z,6.93
2022-08-17T09:48:42.920Z,6.95
2022-08-17T09:51:17.100Z,6.93
2022-08-17T09:53:46.442Z,7.13
2022-08-17T09:56:48.262Z,7.03
2022-08-17T09:59:38.525Z,6.60
2022-08-17T10:02:36.100Z,7.05
2022-08-17T10:05:08.859Z,7.68
2022-08-17T10:07:44.774Z,6.75
2022-08-17T10:10:20.513Z,6.72
2022-08-17T10:12:57.952Z,7.80
2022-08-17T10:15:38.078Z,6.63
2022-08-17T10:18:31.922Z,6.85
2022-08-17T10:21:24.282Z,6.78
2022-08-17T10:24:18.648Z,7.03
2022-08-17T10:26:56.713Z,6.90
2022-08-17T10:29:47.292Z,7.00
2022-08-17T10:32:28.245Z,7.25
2022-08-17T10:35:16.686Z,5.90
2022-08-17T10:38:07.542Z,7.13
2022-08-17T10:40:46.397Z,6.93
2022-08-17T10:43:29.297Z,6.72
2022-08-17T10:46:30.495Z,6.60
2022-08-17T10:49:15.266Z,6.43
2022-08-17T10:51:45.961Z,6.15
2022-08-17T10:54:50.714Z,6.30
2022-08-17T10:57:43.150Z,7.20
2022-08-17T11:00:32.281Z,6.90
2022-08-17T11:03:03.388Z,7.40
2022-08-17T11:05:50.358Z,7.25
2022-08-17T11:08:38.788Z,7.68
2022-08-17T11:11:35.910Z,6.90
2022-08-17T11:14:23.974Z,6.60
2022-08-17T11:19:58.148Z,5.45
2022-08-17T11:22:50.734Z,6.03
2022-08-17T11:25:23.025Z,5.72
2022-08-17T11:28:06.335Z,6.00
2022-08-17T11:30:50.764Z,6.13
2022-08-17T11:33:59.212Z,5.35
2022-08-17T11:36:40.029Z,5.40
2022-08-17T11:39:43.802Z,6.63
2022-08-17T11:42:28.359Z,5.90
2022-08-17T11:44:59.745Z,6.13
2022-08-17T11:48:23.572Z,6.13
2022-08-17T11:51:12.671Z,6.35
2022-08-17T11:54:34.791Z,5.15
2022-08-17T11:57:43.065Z,5.65
2022-08-17T12:00:57.780Z,5.95
2022-08-17T12:03:54.166Z,5.38
2022-08-17T12:06:45.954Z,6.05
2022-08-17T12:09:20.964Z,5.78
2022-08-17T12:12:12.361Z,6.70
2022-08-17T12:17:42.889Z,6.38
2022-08-17T12:20:17.242Z,6.65
2022-08-17T12:22:57.650Z,5.85
2022-08-17T12:25:37.211Z,6.18
2022-08-17T12:28:20.157Z,5.70
2022-08-17T12:30:52.332Z,6.40
2022-08-17T12:33:25.519Z,6.50
2022-08-17T12:36:03.042Z,6.20
2022-08-17T12:38:34.818Z,6.88
2022-08-17T12:41:23.142Z,6.43
2022-08-17T12:44:02.189Z,5.72
2022-08-17T12:46:45.762Z,5.80
2022-08-17T12:49:18.165Z,5.15
2022-08-17T12:51:48.977Z,5.50
2022-08-17T12:54:29.130Z,6.00
2022-08-17T12:57:06.098Z,6.63
2022-08-17T12:59:35.518Z,6.00
2022-08-17T13:02:05.694Z,6.28
2022-08-17T13:04:34.878Z,6.50
2022-08-17T13:07:03.988Z,6.35
2022-08-17T13:09:36.070Z,5.85
2022-08-17T13:12:11.285Z,5.57
2022-08-17T13:14:47.018Z,5.65
2022-08-17T13:17:28.600Z,5.75
2022-08-17T13:19:58.465Z,5.90
2022-08-17T13:22:30.551Z,6.40
2022-08-17T13:25:04.093Z,5.45
2022-08-17T13:27:38.351Z,5.90
2022-08-17T13:30:13.033Z,7.20
2022-08-17T13:32:47.234Z,5.25
2022-08-17T13:35:41.030Z,5.70
2022-08-17T13:38:13.647Z,5.85
2022-08-17T13:40:49.302Z,5.53
2022-08-17T13:43:45.756Z,5.72
2022-08-17T13:46:22.201Z,5.72
2022-08-17T13:49:01.836Z,5.97
2022-08-17T13:51:35.300Z,5.82
2022-08-17T13:54:26.758Z,6.35
2022-08-17T13:57:08.042Z,6.18
2022-08-17T13:59:54.945Z,6.68
2022-08-17T14:02:28.552Z,7.18
2022-08-17T14:05:00.565Z,6.45
2022-08-17T14:07:37.325Z,6.65
2022-08-17T14:10:12.757Z,7.15
2022-08-17T14:12:45.693Z,6.57
2022-08-17T14:15:20.551Z,7.47
2022-08-17T14:17:50.336Z,6.47
2022-08-17T14:20:21.602Z,6.80
2022-08-17T14:22:53.491Z,6.80
2022-08-17T14:25:30.263Z,7.05
2022-08-17T14:28:00.068Z,6.93
2022-08-17T14:30:32.319Z,7.28
2022-08-17T14:33:02.266Z,6.25
2022-08-17T14:35:31.522Z,7.03
2022-08-17T14:38:02.191Z,6.80
2022-08-17T14:40:33.472Z,6.40
2022-08-17T14:43:02.691Z,7.63
2022-08-17T14:45:33.684Z,7.40
2022-08-17T14:48:07.592Z,8.60
2022-08-17T14:50:40.689Z,7.93
2022-08-17T14:53:12.462Z,8.02
2022-08-17T14:55:41.589Z,7.80
2022-08-17T14:58:11.262Z,7.40
2022-08-17T15:00:43.641Z,8.63
2022-08-17T15:03:14.530Z,7.90
2022-08-17T15:05:44.316Z,7.90
2022-08-17T15:08:13.946Z,9.10
2022-08-17T15:10:44.817Z,8.70
2022-08-17T15:13:20.744Z,9.13
2022-08-17T15:15:52.570Z,7.50
2022-08-17T15:18:21.833Z,8.93
2022-08-17T15:20:52.805Z,8.63
2022-08-17T15:23:26.225Z,9.13
2022-08-17T15:25:56.370Z,9.90
2022-08-17T15:28:25.589Z,9.80
2022-08-17T15:30:56.253Z,9.35
2022-08-17T15:33:30.284Z,9.10
2022-08-17T15:36:01.443Z,9.05
2022-08-17T15:38:34.160Z,8.93
2022-08-17T15:41:04.304Z,9.50
2022-08-17T15:43:34.744Z,10.25
2022-08-17T15:46:10.514Z,9.57
2022-08-17T15:48:44.634Z,9.57
2022-08-17T15:51:17.832Z,9.55
2022-08-17T15:53:50.327Z,9.95
2022-08-17T15:56:20.121Z,9.35
2022-08-17T15:58:50.596Z,9.48
2022-08-17T16:03:01.249Z,10.60
2022-08-17T16:04:26.667Z,10.63
2022-08-17T16:07:00.022Z,10.20
2022-08-17T16:09:29.656Z,10.45
2022-08-17T16:11:58.961Z,10.35
2022-08-17T16:14:32.392Z,10.13
2022-08-17T16:17:38.935Z,8.98
2022-08-17T16:19:57.112Z,9.15
2022-08-17T16:22:33.597Z,9.80
2022-08-17T16:25:07.542Z,11.18
2022-08-17T16:27:37.054Z,9.13
2022-08-17T16:30:12.508Z,9.60
2022-08-17T16:32:49.314Z,10.50
2022-08-17T16:35:20.523Z,9.57
2022-08-17T16:37:51.306Z,9.82
2022-08-17T16:40:21.061Z,9.40
2022-08-17T16:42:51.514Z,10.85
2022-08-17T16:45:26.022Z,9.57
2022-08-17T16:48:01.555Z,10.20
2022-08-17T16:50:32.068Z,8.82
2022-08-17T16:53:06.644Z,9.63
2022-08-17T16:55:36.779Z,9.25
2022-08-17T16:58:08.844Z,8.50
2022-08-17T17:00:39.341Z,8.25
2022-08-17T17:03:19.393Z,8.80
2022-08-17T17:06:08.322Z,8.30
2022-08-17T17:08:44.611Z,7.80
2022-08-17T17:11:19.381Z,7.53
2022-08-17T17:13:54.744Z,7.70
2022-08-17T17:16:33.133Z,7.75
2022-08-17T17:19:11.993Z,7.85
2022-08-17T17:21:48.926Z,7.35
2022-08-17T17:24:28.817Z,7.28
2022-08-17T17:27:13.654Z,8.82
2022-08-17T17:29:56.625Z,7.35
2022-08-17T17:32:37.965Z,7.53
2022-08-17T17:35:16.476Z,7.95
2022-08-17T17:37:47.978Z,9.02
2022-08-17T17:40:23.139Z,7.95
2022-08-17T17:42:55.831Z,8.23
2022-08-17T17:45:31.391Z,8.15
2022-08-17T17:48:00.965Z,7.97
2022-08-17T17:50:38.137Z,8.63
2022-08-17T17:53:11.362Z,8.00
2022-08-17T17:56:01.002Z,9.00
2022-08-17T17:58:42.856Z,9.90
2022-08-17T18:01:26.885Z,9.20
2022-08-17T18:04:20.615Z,9.48
2022-08-17T18:07:17.923Z,8.90
2022-08-17T18:10:04.114Z,8.25
2022-08-17T18:12:41.717Z,9.68
2022-08-17T18:15:31.478Z,11.00
2022-08-17T18:18:06.718Z,10.75
2022-08-17T18:20:46.610Z,11.98
2022-08-17T18:23:28.627Z,12.25
2022-08-17T18:25:59.497Z,9.82
2022-08-17T18:28:32.955Z,12.27
2022-08-17T18:31:09.581Z,12.27
2022-08-17T18:33:43.321Z,13.18
2022-08-17T18:36:13.183Z,13.82
2022-08-17T18:38:45.437Z,12.20
2022-08-17T18:41:30.600Z,13.52
2022-08-17T18:44:03.015Z,12.95
2022-08-17T18:46:35.437Z,12.23
2022-08-17T18:49:10.564Z,13.73
2022-08-17T18:51:43.181Z,13.40
2022-08-17T18:54:22.738Z,15.50
2022-08-17T18:56:57.372Z,14.00
2022-08-17T18:59:36.362Z,14.38
2022-08-17T19:02:44.691Z,15.02
2022-08-17T19:05:29.725Z,15.35
2022-08-17T19:08:19.726Z,14.10
2022-08-17T19:10:53.814Z,15.23
2022-08-17T19:13:29.660Z,16.50
2022-08-17T19:16:14.010Z,15.98
2022-08-17T19:18:49.913Z,17.90
2022-08-17T19:21:24.945Z,16.13
2022-08-17T19:24:00.394Z,17.38
2022-08-17T19:26:53.954Z,18.08
2022-08-17T19:29:31.054Z,19.73
2022-08-17T19:32:01.221Z,19.58
2022-08-17T19:34:34.475Z,19.55
2022-08-17T19:37:10.928Z,19.13
2022-08-17T19:39:51.123Z,20.48
2022-08-17T19:42:42.502Z,18.67
2022-08-17T19:45:20.809Z,18.52
2022-08-17T19:50:38.531Z,18.85
2022-08-17T19:53:18.553Z,18.08
2022-08-17T19:55:55.142Z,20.10
2022-08-17T19:58:41.258Z,18.98
2022-08-17T20:01:20.707Z,16.73
2022-08-17T20:03:59.322Z,16.38
2022-08-17T20:06:34.307Z,17.02
2022-08-17T20:09:14.926Z,17.45
2022-08-17T20:11:49.494Z,18.23
2022-08-17T20:14:23.136Z,17.27
2022-08-17T20:16:52.661Z,18.30
2022-08-17T20:19:43.341Z,18.35
2022-08-17T20:22:18.778Z,19.98
2022-08-17T20:24:55.528Z,19.15
2022-08-17T20:27:31.678Z,20.25
2022-08-17T20:30:10.534Z,19.38
2022-08-17T20:32:55.479Z,19.67
2022-08-17T20:35:28.967Z,20.08
2022-08-17T20:38:02.223Z,19.20
2022-08-17T20:40:35.279Z,20.02
2022-08-17T20:43:51.248Z,19.55
2022-08-17T20:46:46.318Z,19.27
2022-08-17T20:49:23.984Z,20.42
2022-08-17T20:52:01.529Z,19.55
2022-08-17T20:54:48.307Z,21.20
2022-08-17T20:57:48.874Z,21.52
2022-08-17T21:00:47.181Z,18.80
2022-08-17T21:03:50.812Z,18.88
2022-08-17T21:06:26.146Z,21.20
2022-08-17T21:08:59.148Z,18.48
2022-08-17T21:12:04.423Z,19.85
2022-08-17T21:14:58.097Z,19.40
2022-08-17T21:17:50.189Z,19.00
2022-08-17T21:20:33.398Z,18.75
2022-08-17T21:23:23.333Z,18.98
2022-08-17T21:26:23.633Z,19.63
2022-08-17T21:29:30.014Z,19.95
2022-08-17T21:32:24.148Z,20.65
2022-08-17T21:35:25.165Z,20.52
2022-08-17T21:38:04.419Z,19.75
2022-08-17T21:40:35.099Z,21.13
2022-08-17T21:43:22.859Z,21.13
2022-08-17T21:46:04.423Z,21.65
2022-08-17T21:48:43.285Z,22.83
2022-08-17T21:51:18.724Z,25.27
2022-08-17T21:53:51.680Z,23.38
2022-08-17T21:56:28.480Z,24.25
2022-08-17T21:59:02.933Z,24.70
2022-08-17T22:01:35.930Z,23.58
2022-08-17T22:04:19.005Z,23.80
2022-08-17T22:06:57.308Z,23.25
2022-08-17T22:09:31.561Z,22.42
2022-08-17T22:12:05.759Z,22.30
2022-08-17T22:14:52.936Z,22.63
2022-08-17T22:17:26.169Z,23.95
2022-08-17T22:19:59.018Z,24.38
2022-08-17T22:22:56.040Z,20.88
2022-08-17T22:25:27.727Z,23.00
2022-08-17T22:28:00.297Z,22.35
2022-08-17T22:30:40.160Z,23.35
2022-08-17T22:33:41.592Z,21.67
2022-08-17T22:36:30.172Z,21.48
2022-08-17T22:39:01.619Z,22.92
2022-08-17T22:41:39.179Z,21.33
2022-08-17T22:44:17.639Z,22.13
2022-08-17T22:46:59.047Z,23.13
2022-08-17T22:49:32.918Z,21.42
2022-08-17T22:52:09.624Z,21.05
2022-08-17T22:54:56.223Z,22.05
2022-08-17T22:57:45.145Z,23.65
2022-08-17T23:00:35.617Z,23.88
2022-08-17T23:03:15.401Z,22.10
2022-08-17T23:05:47.474Z,23.65
2022-08-17T23:08:21.440Z,23.38
2022-08-17T23:10:50.933Z,24.73
2022-08-17T23:13:21.769Z,23.55
2022-08-17T23:15:52.335Z,24.75
2022-08-17T23:18:23.550Z,23.95
2022-08-17T23:20:52.775Z,25.42
2022-08-17T23:23:23.998Z,25.48
2022-08-17T23:25:54.461Z,25.95
2022-08-17T23:28:25.227Z,25.70
2022-08-17T23:30:54.413Z,25.80
2022-08-17T23:33:30.069Z,26.23
2022-08-17T23:35:59.788Z,27.10
2022-08-17T23:38:29.240Z,28.00
2022-08-17T23:41:01.595Z,26.02
2022-08-17T23:43:32.769Z,27.17
2022-08-17T23:46:04.028Z,27.80
2022-08-17T23:48:35.789Z,28.08
2022-08-17T23:51:10.619Z,26.58
2022-08-17T23:53:44.184Z,26.92
2022-08-17T23:56:13.429Z,26.45
2022-08-17T23:58:45.169Z,27.63
